sensor_id;sensor_type;location;lat;lon;timestamp;temperature;humidity
65995;HTU21D;52764;51.036;5.852;2023-02-02T00:00:58;10.01;73.60
65995;HTU21D;52764;51.036;5.852;2023-02-02T00:03:24;9.99;73.56
65995;HTU21D;52764;51.036;5.852;2023-02-02T00:05:53;10.01;73.63
65995;HTU21D;52764;51.036;5.852;2023-02-02T00:08:20;10.04;73.52
65995;HTU21D;52764;51.036;5.852;2023-02-02T00:10:46;10.05;73.48
65995;HTU21D;52764;51.036;5.852;2023-02-02T00:13:13;10.05;73.47
65995;HTU21D;52764;51.036;5.852;2023-02-02T00:15:39;10.09;73.29
65995;HTU21D;52764;51.036;5.852;2023-02-02T00:18:05;10.10;73.26
65995;HTU21D;52764;51.036;5.852;2023-02-02T00:20:32;10.11;73.15
65995;HTU21D;52764;51.036;5.852;2023-02-02T00:23:01;10.15;73.15
65995;HTU21D;52764;51.036;5.852;2023-02-02T00:25:27;10.16;73.09
65995;HTU21D;52764;51.036;5.852;2023-02-02T00:27:52;10.18;73.03
65995;HTU21D;52764;51.036;5.852;2023-02-02T00:30:18;10.13;73.05
65995;HTU21D;52764;51.036;5.852;2023-02-02T00:32:45;10.13;73.19
65995;HTU21D;52764;51.036;5.852;2023-02-02T00:35:13;10.15;73.06
65995;HTU21D;52764;51.036;5.852;2023-02-02T00:37:40;10.12;73.17
65995;HTU21D;52764;51.036;5.852;2023-02-02T00:40:06;10.10;73.44
65995;HTU21D;52764;51.036;5.852;2023-02-02T00:42:32;10.13;73.35
65995;HTU21D;52764;51.036;5.852;2023-02-02T00:44:58;10.13;73.27
65995;HTU21D;52764;51.036;5.852;2023-02-02T00:47:44;10.15;73.25
65995;HTU21D;52764;51.036;5.852;2023-02-02T00:50:13;10.16;73.18
65995;HTU21D;52764;51.036;5.852;2023-02-02T00:52:40;10.18;73.12
65995;HTU21D;52764;51.036;5.852;2023-02-02T00:55:07;10.18;73.11
65995;HTU21D;52764;51.036;5.852;2023-02-02T00:57:33;10.16;74.02
65995;HTU21D;52764;51.036;5.852;2023-02-02T00:59:58;10.14;73.12
65995;HTU21D;52764;51.036;5.852;2023-02-02T01:02:24;10.15;73.08
65995;HTU21D;52764;51.036;5.852;2023-02-02T01:04:50;10.14;73.08
65995;HTU21D;52764;51.036;5.852;2023-02-02T01:07:16;10.09;73.31
65995;HTU21D;52764;51.036;5.852;2023-02-02T01:09:41;10.07;73.35
65995;HTU21D;52764;51.036;5.852;2023-02-02T01:12:07;10.07;73.45
65995;HTU21D;52764;51.036;5.852;2023-02-02T01:14:33;10.09;73.48
65995;HTU21D;52764;51.036;5.852;2023-02-02T01:16:59;10.12;73.15
65995;HTU21D;52764;51.036;5.852;2023-02-02T01:19:24;10.14;73.09
65995;HTU21D;52764;51.036;5.852;2023-02-02T01:21:51;10.16;73.03
65995;HTU21D;52764;51.036;5.852;2023-02-02T01:24:19;10.20;72.89
65995;HTU21D;52764;51.036;5.852;2023-02-02T01:26:44;10.22;72.74
65995;HTU21D;52764;51.036;5.852;2023-02-02T01:29:10;10.20;72.77
65995;HTU21D;52764;51.036;5.852;2023-02-02T01:31:36;10.19;72.81
65995;HTU21D;52764;51.036;5.852;2023-02-02T01:34:02;10.18;72.83
65995;HTU21D;52764;51.036;5.852;2023-02-02T01:36:29;10.18;72.74
65995;HTU21D;52764;51.036;5.852;2023-02-02T01:38:54;10.15;72.77
65995;HTU21D;52764;51.036;5.852;2023-02-02T01:41:24;10.19;72.79
65995;HTU21D;52764;51.036;5.852;2023-02-02T01:43:53;10.16;72.71
65995;HTU21D;52764;51.036;5.852;2023-02-02T01:46:22;10.16;72.32
65995;HTU21D;52764;51.036;5.852;2023-02-02T01:49:13;10.12;72.47
65995;HTU21D;52764;51.036;5.852;2023-02-02T01:51:51;10.21;72.39
65995;HTU21D;52764;51.036;5.852;2023-02-02T01:54:25;10.19;72.47
65995;HTU21D;52764;51.036;5.852;2023-02-02T01:57:15;10.18;72.50
65995;HTU21D;52764;51.036;5.852;2023-02-02T01:59:43;10.21;72.34
65995;HTU21D;52764;51.036;5.852;2023-02-02T02:02:13;10.20;72.44
65995;HTU21D;52764;51.036;5.852;2023-02-02T02:04:39;10.21;72.50
65995;HTU21D;52764;51.036;5.852;2023-02-02T02:07:07;10.23;72.47
65995;HTU21D;52764;51.036;5.852;2023-02-02T02:09:33;10.21;72.38
65995;HTU21D;52764;51.036;5.852;2023-02-02T02:11:59;10.21;72.43
65995;HTU21D;52764;51.036;5.852;2023-02-02T02:14:27;10.24;72.43
65995;HTU21D;52764;51.036;5.852;2023-02-02T02:17:24;10.23;72.40
65995;HTU21D;52764;51.036;5.852;2023-02-02T02:40:39;10.27;72.34
65995;HTU21D;52764;51.036;5.852;2023-02-02T02:43:15;10.34;72.16
65995;HTU21D;52764;51.036;5.852;2023-02-02T02:45:44;10.38;72.03
65995;HTU21D;52764;51.036;5.852;2023-02-02T02:48:11;10.40;71.90
65995;HTU21D;52764;51.036;5.852;2023-02-02T02:50:37;10.42;71.84
65995;HTU21D;52764;51.036;5.852;2023-02-02T02:53:23;10.38;72.06
65995;HTU21D;52764;51.036;5.852;2023-02-02T02:56:13;10.35;72.20
65995;HTU21D;52764;51.036;5.852;2023-02-02T02:59:32;10.34;72.22
65995;HTU21D;52764;51.036;5.852;2023-02-02T03:01:53;10.35;72.23
65995;HTU21D;52764;51.036;5.852;2023-02-02T03:07:14;10.30;72.33
65995;HTU21D;52764;51.036;5.852;2023-02-02T03:09:45;10.28;72.48
65995;HTU21D;52764;51.036;5.852;2023-02-02T03:12:12;10.28;72.51
65995;HTU21D;52764;51.036;5.852;2023-02-02T03:14:40;10.29;72.38
65995;HTU21D;52764;51.036;5.852;2023-02-02T03:17:07;10.30;72.37
65995;HTU21D;52764;51.036;5.852;2023-02-02T03:19:33;10.31;72.22
65995;HTU21D;52764;51.036;5.852;2023-02-02T03:21:58;-20.38;72.22
65995;HTU21D;52764;51.036;5.852;2023-02-02T03:24:24;10.27;72.18
65995;HTU21D;52764;51.036;5.852;2023-02-02T03:26:50;10.28;72.31
65995;HTU21D;52764;51.036;5.852;2023-02-02T03:29:17;10.26;72.37
65995;HTU21D;52764;51.036;5.852;2023-02-02T03:31:43;10.28;72.34
65995;HTU21D;52764;51.036;5.852;2023-02-02T03:34:08;10.30;72.25
65995;HTU21D;52764;51.036;5.852;2023-02-02T03:36:34;10.27;72.28
65995;HTU21D;52764;51.036;5.852;2023-02-02T03:39:00;10.27;72.37
65995;HTU21D;52764;51.036;5.852;2023-02-02T03:41:25;10.29;72.35
65995;HTU21D;52764;51.036;5.852;2023-02-02T03:43:51;10.28;72.31
65995;HTU21D;52764;51.036;5.852;2023-02-02T03:46:17;10.27;72.31
65995;HTU21D;52764;51.036;5.852;2023-02-02T03:48:42;10.26;72.36
65995;HTU21D;52764;51.036;5.852;2023-02-02T03:51:11;10.27;72.35
65995;HTU21D;52764;51.036;5.852;2023-02-02T03:53:38;10.27;72.22
65995;HTU21D;52764;51.036;5.852;2023-02-02T03:56:04;10.27;72.32
65995;HTU21D;52764;51.036;5.852;2023-02-02T03:58:30;10.27;72.25
65995;HTU21D;52764;51.036;5.852;2023-02-02T04:01:08;10.24;72.37
65995;HTU21D;52764;51.036;5.852;2023-02-02T04:03:35;10.24;72.35
65995;HTU21D;52764;51.036;5.852;2023-02-02T04:06:00;10.24;72.71
65995;HTU21D;52764;51.036;5.852;2023-02-02T04:08:26;9.67;72.48
65995;HTU21D;52764;51.036;5.852;2023-02-02T04:10:53;10.21;72.24
65995;HTU21D;52764;51.036;5.852;2023-02-02T04:13:19;10.16;72.93
65995;HTU21D;52764;51.036;5.852;2023-02-02T04:15:44;10.13;73.11
65995;HTU21D;52764;51.036;5.852;2023-02-02T04:18:10;10.14;73.19
65995;HTU21D;52764;51.036;5.852;2023-02-02T04:20:36;10.16;73.19
65995;HTU21D;52764;51.036;5.852;2023-02-02T04:23:02;10.16;73.00
65995;HTU21D;52764;51.036;5.852;2023-02-02T04:25:27;12.94;73.00
65995;HTU21D;52764;51.036;5.852;2023-02-02T04:27:53;10.14;73.16
65995;HTU21D;52764;51.036;5.852;2023-02-02T04:30:19;10.14;73.28
65995;HTU21D;52764;51.036;5.852;2023-02-02T04:32:45;10.18;73.30
65995;HTU21D;52764;51.036;5.852;2023-02-02T04:35:11;10.16;73.26
65995;HTU21D;52764;51.036;5.852;2023-02-02T04:37:37;10.10;73.51
65995;HTU21D;52764;51.036;5.852;2023-02-02T04:40:03;10.07;73.90
65995;HTU21D;52764;51.036;5.852;2023-02-02T04:42:30;10.00;74.23
65995;HTU21D;52764;51.036;5.852;2023-02-02T04:44:57;9.97;74.36
65995;HTU21D;52764;51.036;5.852;2023-02-02T04:47:23;9.93;74.58
65995;HTU21D;52764;51.036;5.852;2023-02-02T04:49:48;9.94;74.84
65995;HTU21D;52764;51.036;5.852;2023-02-02T04:52:14;9.95;74.87
65995;HTU21D;52764;51.036;5.852;2023-02-02T04:54:40;9.90;75.04
65995;HTU21D;52764;51.036;5.852;2023-02-02T04:57:06;9.95;74.89
65995;HTU21D;52764;51.036;5.852;2023-02-02T04:59:31;10.01;74.78
65995;HTU21D;52764;51.036;5.852;2023-02-02T05:02:01;10.00;74.81
65995;HTU21D;52764;51.036;5.852;2023-02-02T05:04:27;9.96;75.11
65995;HTU21D;52764;51.036;5.852;2023-02-02T05:06:53;9.90;75.57
65995;HTU21D;52764;51.036;5.852;2023-02-02T05:09:18;9.81;76.24
65995;HTU21D;52764;51.036;5.852;2023-02-02T05:11:44;9.67;76.73
65995;HTU21D;52764;51.036;5.852;2023-02-02T05:14:10;9.66;77.24
65995;HTU21D;52764;51.036;5.852;2023-02-02T05:16:35;9.62;77.69
65995;HTU21D;52764;51.036;5.852;2023-02-02T05:19:02;9.59;77.92
65995;HTU21D;52764;51.036;5.852;2023-02-02T05:21:28;9.53;78.17
65995;HTU21D;52764;51.036;5.852;2023-02-02T05:23:54;9.53;78.47
65995;HTU21D;52764;51.036;5.852;2023-02-02T05:26:22;9.53;78.64
65995;HTU21D;52764;51.036;5.852;2023-02-02T05:28:49;9.55;78.51
65995;HTU21D;52764;51.036;5.852;2023-02-02T05:31:15;9.55;78.46
65995;HTU21D;52764;51.036;5.852;2023-02-02T05:33:41;9.53;78.34
65995;HTU21D;52764;51.036;5.852;2023-02-02T05:36:07;9.54;78.42
65995;HTU21D;52764;51.036;5.852;2023-02-02T05:38:33;9.59;78.40
65995;HTU21D;52764;51.036;5.852;2023-02-02T05:40:59;9.60;78.20
65995;HTU21D;52764;51.036;5.852;2023-02-02T05:43:26;9.61;78.15
65995;HTU21D;52764;51.036;5.852;2023-02-02T05:45:53;9.63;78.02
65995;HTU21D;52764;51.036;5.852;2023-02-02T05:48:19;9.62;77.80
65995;HTU21D;52764;51.036;5.852;2023-02-02T05:53:27;9.61;77.85
65995;HTU21D;52764;51.036;5.852;2023-02-02T05:55:53;9.62;77.90
65995;HTU21D;52764;51.036;5.852;2023-02-02T05:58:19;9.65;77.76
65995;HTU21D;52764;51.036;5.852;2023-02-02T06:00:44;9.66;77.56
65995;HTU21D;52764;51.036;5.852;2023-02-02T06:03:10;9.67;77.46
65995;HTU21D;52764;51.036;5.852;2023-02-02T06:05:37;9.69;77.36
65995;HTU21D;52764;51.036;5.852;2023-02-02T06:08:03;9.72;77.13
65995;HTU21D;52764;51.036;5.852;2023-02-02T06:10:29;9.79;76.84
65995;HTU21D;52764;51.036;5.852;2023-02-02T06:12:56;9.88;76.51
65995;HTU21D;52764;51.036;5.852;2023-02-02T06:15:22;9.92;76.35
65995;HTU21D;52764;51.036;5.852;2023-02-02T06:17:48;9.95;76.09
65995;HTU21D;52764;51.036;5.852;2023-02-02T06:20:14;9.94;75.97
65995;HTU21D;52764;51.036;5.852;2023-02-02T06:22:40;9.94;76.00
65995;HTU21D;52764;51.036;5.852;2023-02-02T06:25:07;9.92;75.94
65995;HTU21D;52764;51.036;5.852;2023-02-02T06:27:33;9.92;75.90
65995;HTU21D;52764;51.036;5.852;2023-02-02T06:29:59;9.92;75.79
65995;HTU21D;52764;51.036;5.852;2023-02-02T06:32:27;9.95;75.70
65995;HTU21D;52764;51.036;5.852;2023-02-02T06:34:53;9.94;75.75
65995;HTU21D;52764;51.036;5.852;2023-02-02T06:37:19;9.92;75.92
65995;HTU21D;52764;51.036;5.852;2023-02-02T06:39:45;9.90;76.17
65995;HTU21D;52764;51.036;5.852;2023-02-02T06:42:10;9.91;76.26
65995;HTU21D;52764;51.036;5.852;2023-02-02T06:44:36;9.88;76.31
65995;HTU21D;52764;51.036;5.852;2023-02-02T06:47:02;9.84;76.45
65995;HTU21D;52764;51.036;5.852;2023-02-02T06:49:27;9.81;76.64
65995;HTU21D;52764;51.036;5.852;2023-02-02T06:51:53;9.80;76.66
65995;HTU21D;52764;51.036;5.852;2023-02-02T06:54:19;9.78;76.81
65995;HTU21D;52764;51.036;5.852;2023-02-02T06:56:44;9.81;76.59
65995;HTU21D;52764;51.036;5.852;2023-02-02T06:59:10;9.82;76.47
65995;HTU21D;52764;51.036;5.852;2023-02-02T07:01:36;9.85;76.27
65995;HTU21D;52764;51.036;5.852;2023-02-02T07:04:02;9.93;76.01
65995;HTU21D;52764;51.036;5.852;2023-02-02T07:06:28;9.96;75.67
65995;HTU21D;52764;51.036;5.852;2023-02-02T07:08:54;9.98;75.50
65995;HTU21D;52764;51.036;5.852;2023-02-02T07:11:20;10.01;75.31
65995;HTU21D;52764;51.036;5.852;2023-02-02T07:13:48;10.07;75.16
65995;HTU21D;52764;51.036;5.852;2023-02-02T07:16:16;10.11;74.93
65995;HTU21D;52764;51.036;5.852;2023-02-02T07:18:42;10.15;74.65
65995;HTU21D;52764;51.036;5.852;2023-02-02T07:21:18;10.19;74.54
65995;HTU21D;52764;51.036;5.852;2023-02-02T07:23:45;10.21;74.35
65995;HTU21D;52764;51.036;5.852;2023-02-02T07:26:12;10.21;74.23
65995;HTU21D;52764;51.036;5.852;2023-02-02T07:28:39;10.28;74.07
65995;HTU21D;52764;51.036;5.852;2023-02-02T07:31:31;10.26;73.83
65995;HTU21D;52764;51.036;5.852;2023-02-02T07:33:57;10.26;73.87
65995;HTU21D;52764;51.036;5.852;2023-02-02T07:36:23;10.28;73.80
65995;HTU21D;52764;51.036;5.852;2023-02-02T07:38:52;10.31;73.69
65995;HTU21D;52764;51.036;5.852;2023-02-02T07:41:26;10.34;73.46
65995;HTU21D;52764;51.036;5.852;2023-02-02T07:43:52;10.31;73.46
65995;HTU21D;52764;51.036;5.852;2023-02-02T07:46:18;10.27;73.63
65995;HTU21D;52764;51.036;5.852;2023-02-02T07:48:44;10.25;73.81
65995;HTU21D;52764;51.036;5.852;2023-02-02T07:51:15;10.24;59.86
65995;HTU21D;52764;51.036;5.852;2023-02-02T07:53:46;10.25;73.82
65995;HTU21D;52764;51.036;5.852;2023-02-02T07:56:24;10.27;73.73
65995;HTU21D;52764;51.036;5.852;2023-02-02T07:58:52;10.28;73.70
65995;HTU21D;52764;51.036;5.852;2023-02-02T08:01:18;10.27;73.71
65995;HTU21D;52764;51.036;5.852;2023-02-02T08:03:44;10.27;73.77
65995;HTU21D;52764;51.036;5.852;2023-02-02T08:06:17;10.28;73.68
65995;HTU21D;52764;51.036;5.852;2023-02-02T08:08:45;10.28;73.68
65995;HTU21D;52764;51.036;5.852;2023-02-02T08:11:14;10.29;73.71
65995;HTU21D;52764;51.036;5.852;2023-02-02T08:13:41;10.31;73.65
65995;HTU21D;52764;51.036;5.852;2023-02-02T08:16:08;10.39;73.19
65995;HTU21D;52764;51.036;5.852;2023-02-02T08:18:35;10.40;73.15
65995;HTU21D;52764;51.036;5.852;2023-02-02T08:21:03;1.76;73.11
65995;HTU21D;52764;51.036;5.852;2023-02-02T08:23:29;10.44;73.00
65995;HTU21D;52764;51.036;5.852;2023-02-02T08:26:22;10.49;72.87
65995;HTU21D;52764;51.036;5.852;2023-02-02T08:28:53;10.52;72.72
65995;HTU21D;52764;51.036;5.852;2023-02-02T08:31:31;10.55;72.64
65995;HTU21D;52764;51.036;5.852;2023-02-02T08:33:57;10.54;72.63
65995;HTU21D;52764;51.036;5.852;2023-02-02T08:36:25;10.56;72.66
65995;HTU21D;52764;51.036;5.852;2023-02-02T08:38:52;10.57;72.66
65995;HTU21D;52764;51.036;5.852;2023-02-02T08:41:21;10.55;72.70
65995;HTU21D;52764;51.036;5.852;2023-02-02T08:43:48;10.58;72.87
65995;HTU21D;52764;51.036;5.852;2023-02-02T08:46:16;10.62;72.90
65995;HTU21D;52764;51.036;5.852;2023-02-02T08:48:43;10.65;72.93
65995;HTU21D;52764;51.036;5.852;2023-02-02T08:51:11;10.65;73.00
65995;HTU21D;52764;51.036;5.852;2023-02-02T08:53:38;-19.87;73.46
65995;HTU21D;52764;51.036;5.852;2023-02-02T08:56:13;10.54;73.80
65995;HTU21D;52764;51.036;5.852;2023-02-02T08:58:44;10.52;74.12
65995;HTU21D;52764;51.036;5.852;2023-02-02T09:03:38;10.43;74.44
65995;HTU21D;52764;51.036;5.852;2023-02-02T09:06:17;10.41;74.57
65995;HTU21D;52764;51.036;5.852;2023-02-02T09:08:44;10.38;74.83
65995;HTU21D;52764;51.036;5.852;2023-02-02T09:11:13;10.39;75.01
65995;HTU21D;52764;51.036;5.852;2023-02-02T09:13:40;10.38;75.22
65995;HTU21D;52764;51.036;5.852;2023-02-02T09:16:09;10.37;75.63
65995;HTU21D;52764;51.036;5.852;2023-02-02T09:18:36;10.44;75.59
65995;HTU21D;52764;51.036;5.852;2023-02-02T09:21:04;10.48;75.57
65995;HTU21D;52764;51.036;5.852;2023-02-02T09:23:32;10.52;75.45
65995;HTU21D;52764;51.036;5.852;2023-02-02T09:26:12;10.54;75.31
65995;HTU21D;52764;51.036;5.852;2023-02-02T09:28:39;10.52;75.29
65995;HTU21D;52764;51.036;5.852;2023-02-02T09:31:06;10.54;75.25
65995;HTU21D;52764;51.036;5.852;2023-02-02T09:33:32;10.55;75.24
65995;HTU21D;52764;51.036;5.852;2023-02-02T09:36:06;10.55;75.18
65995;HTU21D;52764;51.036;5.852;2023-02-02T09:38:32;10.56;75.12
65995;HTU21D;52764;51.036;5.852;2023-02-02T09:40:59;10.57;75.20
65995;HTU21D;52764;51.036;5.852;2023-02-02T09:43:36;-19.74;75.07
65995;HTU21D;52764;51.036;5.852;2023-02-02T09:46:16;10.70;74.89
65995;HTU21D;52764;51.036;5.852;2023-02-02T09:49:04;10.70;61.76
65995;HTU21D;52764;51.036;5.852;2023-02-02T09:51:42;10.68;74.83
65995;HTU21D;52764;51.036;5.852;2023-02-02T09:54:33;10.74;74.57
65995;HTU21D;52764;51.036;5.852;2023-02-02T09:57:07;2.57;74.28
65995;HTU21D;52764;51.036;5.852;2023-02-02T09:59:39;10.92;73.92
65995;HTU21D;52764;51.036;5.852;2023-02-02T10:02:22;10.98;73.48
65995;HTU21D;52764;51.036;5.852;2023-02-02T10:05:01;11.03;73.18
65995;HTU21D;52764;51.036;5.852;2023-02-02T10:07:42;11.08;72.85
65995;HTU21D;52764;51.036;5.852;2023-02-02T10:21:09;11.26;71.90
65995;HTU21D;52764;51.036;5.852;2023-02-02T10:23:39;11.36;71.74
65995;HTU21D;52764;51.036;5.852;2023-02-02T10:34:30;11.63;70.64
65995;HTU21D;52764;51.036;5.852;2023-02-02T10:37:27;11.07;70.34
65995;HTU21D;52764;51.036;5.852;2023-02-02T10:45:42;11.82;69.35
65995;HTU21D;52764;51.036;5.852;2023-02-02T10:48:15;11.89;68.86
65995;HTU21D;52764;51.036;5.852;2023-02-02T10:50:51;11.89;68.70
65995;HTU21D;52764;51.036;5.852;2023-02-02T10:53:19;11.90;68.72
65995;HTU21D;52764;51.036;5.852;2023-02-02T10:55:59;11.94;69.04
65995;HTU21D;52764;51.036;5.852;2023-02-02T11:01:07;11.84;68.55
65995;HTU21D;52764;51.036;5.852;2023-02-02T11:03:37;11.91;68.24
65995;HTU21D;52764;51.036;5.852;2023-02-02T11:06:06;11.91;68.24
65995;HTU21D;52764;51.036;5.852;2023-02-02T11:08:52;11.96;68.23
65995;HTU21D;52764;51.036;5.852;2023-02-02T11:11:39;12.04;68.10
65995;HTU21D;52764;51.036;5.852;2023-02-02T11:16:43;5.25;67.46
65995;HTU21D;52764;51.036;5.852;2023-02-02T11:21:46;12.12;67.37
65995;HTU21D;52764;51.036;5.852;2023-02-02T11:24:37;12.06;67.61
65995;HTU21D;52764;51.036;5.852;2023-02-02T11:32:29;12.06;67.51
65995;HTU21D;52764;51.036;5.852;2023-02-02T11:37:27;12.03;67.55
65995;HTU21D;52764;51.036;5.852;2023-02-02T11:39:53;12.08;67.60
65995;HTU21D;52764;51.036;5.852;2023-02-02T11:42:21;12.18;67.27
65995;HTU21D;52764;51.036;5.852;2023-02-02T11:44:54;12.29;67.00
65995;HTU21D;52764;51.036;5.852;2023-02-02T11:47:29;12.40;66.65
65995;HTU21D;52764;51.036;5.852;2023-02-02T11:49:59;12.42;66.13
65995;HTU21D;52764;51.036;5.852;2023-02-02T11:52:28;12.47;65.92
65995;HTU21D;52764;51.036;5.852;2023-02-02T11:54:59;12.52;65.74
65995;HTU21D;52764;51.036;5.852;2023-02-02T11:57:27;12.53;65.50
65995;HTU21D;52764;51.036;5.852;2023-02-02T12:00:16;12.56;65.33
65995;HTU21D;52764;51.036;5.852;2023-02-02T12:02:48;12.60;65.40
65995;HTU21D;52764;51.036;5.852;2023-02-02T12:05:34;12.64;65.20
65995;HTU21D;52764;51.036;5.852;2023-02-02T12:08:00;12.67;65.11
65995;HTU21D;52764;51.036;5.852;2023-02-02T12:10:38;12.76;65.21
65995;HTU21D;52764;51.036;5.852;2023-02-02T12:35:21;13.00;63.49
65995;HTU21D;52764;51.036;5.852;2023-02-02T12:38:06;12.92;63.63
65995;HTU21D;52764;51.036;5.852;2023-02-02T12:40:42;12.84;63.84
65995;HTU21D;52764;51.036;5.852;2023-02-02T12:48:45;12.59;64.19
65995;HTU21D;52764;51.036;5.852;2023-02-02T12:59:59;12.63;64.50
65995;HTU21D;52764;51.036;5.852;2023-02-02T13:08:00;12.90;63.98
65995;HTU21D;52764;51.036;5.852;2023-02-02T13:10:46;12.96;63.75
65995;HTU21D;52764;51.036;5.852;2023-02-02T13:13:32;12.95;63.37
65995;HTU21D;52764;51.036;5.852;2023-02-02T13:16:08;12.96;63.02
65995;HTU21D;52764;51.036;5.852;2023-02-02T13:18:41;12.94;63.15
65995;HTU21D;52764;51.036;5.852;2023-02-02T13:21:15;13.00;63.16
65995;HTU21D;52764;51.036;5.852;2023-02-02T13:23:52;13.01;62.99
65995;HTU21D;52764;51.036;5.852;2023-02-02T13:28:58;13.00;63.13
65995;HTU21D;52764;51.036;5.852;2023-02-02T13:31:57;13.02;62.62
65995;HTU21D;52764;51.036;5.852;2023-02-02T13:45:55;13.24;63.10
65995;HTU21D;52764;51.036;5.852;2023-02-02T14:01:56;13.22;64.14
65995;HTU21D;52764;51.036;5.852;2023-02-02T14:04:27;13.17;64.08
65995;HTU21D;52764;51.036;5.852;2023-02-02T14:06:57;13.09;63.97
65995;HTU21D;52764;51.036;5.852;2023-02-02T14:09:27;13.02;64.08
65995;HTU21D;52764;51.036;5.852;2023-02-02T14:12:00;12.95;64.26
65995;HTU21D;52764;51.036;5.852;2023-02-02T14:14:28;12.91;64.24
65995;HTU21D;52764;51.036;5.852;2023-02-02T14:17:04;12.18;64.23
65995;HTU21D;52764;51.036;5.852;2023-02-02T14:26:57;12.63;65.29
65995;HTU21D;52764;51.036;5.852;2023-02-02T14:34:41;12.56;65.89
65995;HTU21D;52764;51.036;5.852;2023-02-02T14:45:40;12.77;65.11
65995;HTU21D;52764;51.036;5.852;2023-02-02T14:56:02;12.77;65.04
65995;HTU21D;52764;51.036;5.852;2023-02-02T15:06:25;12.77;64.22
65995;HTU21D;52764;51.036;5.852;2023-02-02T15:22:56;12.70;64.53
65995;HTU21D;52764;51.036;5.852;2023-02-02T15:25:30;12.69;64.39
65995;HTU21D;52764;51.036;5.852;2023-02-02T15:28:07;12.64;64.54
65995;HTU21D;52764;51.036;5.852;2023-02-02T15:30:35;12.65;57.07
65995;HTU21D;52764;51.036;5.852;2023-02-02T15:33:17;12.66;64.64
65995;HTU21D;52764;51.036;5.852;2023-02-02T15:35:47;12.66;64.57
65995;HTU21D;52764;51.036;5.852;2023-02-02T15:38:15;12.63;64.66
65995;HTU21D;52764;51.036;5.852;2023-02-02T15:40:45;12.59;64.70
65995;HTU21D;52764;51.036;5.852;2023-02-02T15:43:12;12.58;64.91
65995;HTU21D;52764;51.036;5.852;2023-02-02T15:45:46;12.59;65.08
65995;HTU21D;52764;51.036;5.852;2023-02-02T15:48:24;12.59;65.04
65995;HTU21D;52764;51.036;5.852;2023-02-02T15:50:59;12.56;65.10
65995;HTU21D;52764;51.036;5.852;2023-02-02T15:53:30;12.52;65.21
65995;HTU21D;52764;51.036;5.852;2023-02-02T15:55:57;12.46;65.46
65995;HTU21D;52764;51.036;5.852;2023-02-02T15:58:32;12.50;65.59
65995;HTU21D;52764;51.036;5.852;2023-02-02T16:03:37;12.44;65.75
65995;HTU21D;52764;51.036;5.852;2023-02-02T16:06:07;12.41;65.90
65995;HTU21D;52764;51.036;5.852;2023-02-02T16:08:36;12.41;65.95
65995;HTU21D;52764;51.036;5.852;2023-02-02T16:13:32;12.35;66.16
65995;HTU21D;52764;51.036;5.852;2023-02-02T16:16:02;12.36;66.33
65995;HTU21D;52764;51.036;5.852;2023-02-02T16:18:28;12.32;66.53
65995;HTU21D;52764;51.036;5.852;2023-02-02T16:20:58;12.28;66.72
65995;HTU21D;52764;51.036;5.852;2023-02-02T16:23:32;12.26;66.90
65995;HTU21D;52764;51.036;5.852;2023-02-02T16:26:02;12.29;67.02
65995;HTU21D;52764;51.036;5.852;2023-02-02T16:28:30;12.27;67.09
65995;HTU21D;52764;51.036;5.852;2023-02-02T16:30:59;12.22;67.08
65995;HTU21D;52764;51.036;5.852;2023-02-02T16:35:54;12.22;67.36
65995;HTU21D;52764;51.036;5.852;2023-02-02T16:38:34;12.25;67.38
65995;HTU21D;52764;51.036;5.852;2023-02-02T16:46:58;12.13;68.24
65995;HTU21D;52764;51.036;5.852;2023-02-02T16:49:26;12.03;68.96
65995;HTU21D;52764;51.036;5.852;2023-02-02T16:52:14;11.97;69.52
65995;HTU21D;52764;51.036;5.852;2023-02-02T16:54:52;11.96;69.65
65995;HTU21D;52764;51.036;5.852;2023-02-02T16:57:25;11.97;69.68
65995;HTU21D;52764;51.036;5.852;2023-02-02T16:59:55;11.99;69.61
65995;HTU21D;52764;51.036;5.852;2023-02-02T17:02:31;10.55;69.46
65995;HTU21D;52764;51.036;5.852;2023-02-02T17:07:33;12.11;69.43
65995;HTU21D;52764;51.036;5.852;2023-02-02T17:10:17;12.01;70.03
65995;HTU21D;52764;51.036;5.852;2023-02-02T17:12:45;11.94;70.54
65995;HTU21D;52764;51.036;5.852;2023-02-02T17:17:44;11.94;70.98
65995;HTU21D;52764;51.036;5.852;2023-02-02T17:20:18;-17.21;70.87
65995;HTU21D;52764;51.036;5.852;2023-02-02T17:22:47;11.93;70.83
65995;HTU21D;52764;51.036;5.852;2023-02-02T17:25:16;12.00;70.74
65995;HTU21D;52764;51.036;5.852;2023-02-02T17:27:43;12.04;70.54
65995;HTU21D;52764;51.036;5.852;2023-02-02T17:30:15;12.04;70.37
65995;HTU21D;52764;51.036;5.852;2023-02-02T17:32:41;12.02;70.38
65995;HTU21D;52764;51.036;5.852;2023-02-02T17:35:18;11.99;70.45
65995;HTU21D;52764;51.036;5.852;2023-02-02T17:37:45;12.02;70.45
65995;HTU21D;52764;51.036;5.852;2023-02-02T17:40:13;11.99;70.44
65995;HTU21D;52764;51.036;5.852;2023-02-02T17:42:41;11.97;70.52
65995;HTU21D;52764;51.036;5.852;2023-02-02T17:45:17;11.93;70.59
65995;HTU21D;52764;51.036;5.852;2023-02-02T17:47:44;11.92;70.68
65995;HTU21D;52764;51.036;5.852;2023-02-02T17:50:10;11.92;70.74
65995;HTU21D;52764;51.036;5.852;2023-02-02T17:52:35;11.94;70.70
65995;HTU21D;52764;51.036;5.852;2023-02-02T17:55:11;11.91;70.71
65995;HTU21D;52764;51.036;5.852;2023-02-02T17:57:38;11.91;70.74
65995;HTU21D;52764;51.036;5.852;2023-02-02T18:00:04;11.91;70.66
65995;HTU21D;52764;51.036;5.852;2023-02-02T18:02:30;11.86;70.87
65995;HTU21D;52764;51.036;5.852;2023-02-02T18:04:56;11.86;70.97
65995;HTU21D;52764;51.036;5.852;2023-02-02T18:07:22;11.87;85.42
65995;HTU21D;52764;51.036;5.852;2023-02-02T18:09:47;11.89;70.98
65995;HTU21D;52764;51.036;5.852;2023-02-02T18:12:13;11.91;71.03
65995;HTU21D;52764;51.036;5.852;2023-02-02T18:14:39;11.97;70.88
65995;HTU21D;52764;51.036;5.852;2023-02-02T18:17:04;11.98;70.84
65995;HTU21D;52764;51.036;5.852;2023-02-02T18:19:32;12.00;70.73
65995;HTU21D;52764;51.036;5.852;2023-02-02T18:21:58;11.98;70.77
65995;HTU21D;52764;51.036;5.852;2023-02-02T18:24:24;11.71;70.81
65995;HTU21D;52764;51.036;5.852;2023-02-02T18:26:49;11.98;70.81
65995;HTU21D;52764;51.036;5.852;2023-02-02T18:29:15;11.94;70.90
65995;HTU21D;52764;51.036;5.852;2023-02-02T18:31:41;11.97;70.89
65995;HTU21D;52764;51.036;5.852;2023-02-02T18:34:06;11.93;70.97
65995;HTU21D;52764;51.036;5.852;2023-02-02T18:36:32;11.96;70.90
65995;HTU21D;52764;51.036;5.852;2023-02-02T18:38:59;11.94;70.91
65995;HTU21D;52764;51.036;5.852;2023-02-02T18:41:24;11.96;85.29
65995;HTU21D;52764;51.036;5.852;2023-02-02T18:43:53;11.94;70.92
65995;HTU21D;52764;51.036;5.852;2023-02-02T18:46:18;11.91;71.02
65995;HTU21D;52764;51.036;5.852;2023-02-02T18:48:44;11.86;71.36
65995;HTU21D;52764;51.036;5.852;2023-02-02T18:51:15;11.81;71.56
65995;HTU21D;52764;51.036;5.852;2023-02-02T18:53:43;11.79;71.55
65995;HTU21D;52764;51.036;5.852;2023-02-02T18:56:11;11.83;71.39
65995;HTU21D;52764;51.036;5.852;2023-02-02T18:58:38;11.85;71.34
65995;HTU21D;52764;51.036;5.852;2023-02-02T19:01:06;11.84;71.27